Time;durP1;ratioP1;P1;durP2;ratioP2;P2;SDS_P1;SDS_P2;PMS_P1;PMS_P2;Temp;Humidity;BMP_temperature;BMP_pressure;BME280_temperature;BME280_humidity;BME280_pressure;Samples;Min_cycle;Max_cycle;Signal;HPM_P1;HPM_P2
2022/06/12 00:01:44;;;;;;;16.27;3.72;;;;;;;16.82;65.82;101376.25;5054017;28;20037;-91
2022/06/12 00:04:10;;;;;;;25.13;4.40;;;;;;;16.72;65.15;101363.78;5054031;28;20054;-91
2022/06/12 00:06:35;;;;;;;12.63;3.08;;;;;;;16.89;65.14;101371.31;5054798;28;20032;-90
2022/06/12 00:09:00;;;;;;;18.63;4.32;;;;;;;17.01;64.67;101377.44;5053966;28;20029;-90
2022/06/12 00:11:27;;;;;;;13.30;4.15;;;;;;;16.78;65.03;101371.28;5054204;28;20025;-90
2022/06/12 00:14:02;;;;;;;15.48;3.60;;;;;;;17.07;64.18;101368.16;5053878;28;20478;-91
2022/06/12 00:16:31;;;;;;;15.85;3.75;;;;;;;17.00;64.27;101359.81;5053923;28;20033;-91
2022/06/12 00:18:58;;;;;;;21.50;4.60;;;;;;;17.09;63.62;101363.56;5053849;28;20496;-91
2022/06/12 00:21:25;;;;;;;11.48;3.55;;;;;;;17.12;63.68;101366.81;5066722;28;20393;-90
2022/06/12 00:23:54;;;;;;;17.58;3.28;;;;;;;17.01;64.11;101367.66;5073911;28;20020;-90
2022/06/12 00:26:35;;;;;;;21.60;3.95;;;;;;;16.78;64.88;101361.50;5073544;28;20028;-90
2022/06/12 00:29:11;;;;;;;17.17;3.80;;;;;;;16.78;64.82;101363.31;5073545;28;20032;-90
2022/06/12 00:31:41;;;;;;;17.95;4.03;;;;;;;16.66;64.94;101358.00;5072980;28;20056;-90
2022/06/12 00:34:08;;;;;;;17.67;4.60;;;;;;;16.57;65.11;101372.00;5073179;28;20385;-90
2022/06/12 00:36:33;;;;;;;18.40;3.55;;;;;;;16.42;65.88;101363.41;5071600;28;20444;-90
2022/06/12 00:38:59;;;;;;;18.92;4.03;;;;;;;16.54;65.94;101374.03;5055786;28;20036;-90
2022/06/12 00:41:25;;;;;;;16.67;4.70;;;;;;;16.47;65.61;101368.38;5053302;28;20107;-90
2022/06/12 00:43:52;;;;;;;14.65;4.25;;;;;;;16.50;65.74;101370.78;5053273;28;20102;-90
2022/06/12 00:46:35;;;;;;;15.05;3.30;;;;;;;16.58;65.23;101368.38;5053157;28;20036;-90
2022/06/12 00:49:06;;;;;;;11.63;4.32;;;;;;;16.57;65.83;101374.66;5053003;28;20043;-90
2022/06/12 00:51:32;;;;;;;11.82;3.38;;;;;;;16.69;65.96;101374.66;5053028;28;20032;-91
2022/06/12 00:53:59;;;;;;;15.23;3.90;;;;;;;16.71;66.31;101376.22;5066664;28;20082;-90
2022/06/12 00:56:31;;;;;;;13.32;3.58;;;;;;;16.66;65.62;101365.94;5073052;28;20031;-90
2022/06/12 00:59:02;;;;;;;11.85;2.92;;;;;;;16.61;66.01;101373.44;5073172;28;20393;-90
2022/06/12 01:01:34;;;;;;;15.15;3.65;;;;;;;16.68;65.79;101372.97;5071737;28;20016;-90
2022/06/12 01:06:48;;;;;;;20.48;3.72;;;;;;;16.68;66.22;101368.50;5072732;28;20150;-90
2022/06/12 01:09:16;;;;;;;18.52;3.67;;;;;;;16.51;66.13;101377.78;5070844;28;20120;-91
2022/06/12 01:11:46;;;;;;;17.17;3.72;;;;;;;16.56;65.96;101374.75;5072721;28;20028;-91
2022/06/12 01:14:14;;;;;;;13.98;3.63;;;;;;;16.59;66.05;101378.03;5072921;28;20025;-90
2022/06/12 01:16:45;;;;;;;12.18;3.92;;;;;;;16.48;65.96;101383.31;5072572;28;20112;-90
2022/06/12 01:19:50;;;;;;;11.20;2.90;;;;;;;16.49;66.47;101384.16;5072701;28;20520;-91
2022/06/12 01:22:50;;;;;;;11.73;3.15;;;;;;;16.61;65.79;101384.06;5072343;28;20065;-90
2022/06/12 01:25:52;;;;;;;19.50;4.57;;;;;;;16.55;65.74;101386.34;5052407;28;20112;-90
2022/06/12 01:28:47;;;;;;;12.70;3.38;;;;;;;16.45;66.31;101379.09;5052313;28;20523;-90
2022/06/12 01:31:50;;;;;;;20.35;3.63;;;;;;;16.65;65.89;101379.34;5070399;28;20478;-90
2022/06/12 01:34:21;;;;;;;18.63;3.95;;;;;;;16.71;65.20;101372.72;5072317;28;20032;-90
2022/06/12 01:37:04;;;;;;;15.55;3.30;;;;;;;16.43;66.54;101372.22;5070966;28;20054;-91
2022/06/12 01:40:05;;;;;;;15.25;3.40;;;;;;;16.40;66.26;101375.94;5072389;28;20033;-90
2022/06/12 01:42:46;;;;;;;13.27;3.60;;;;;;;16.21;66.70;101365.06;5028510;28;20513;-91
2022/06/12 01:45:39;;;;;;;17.02;3.72;;;;;;;16.30;66.22;101369.66;5062903;28;20124;-91
2022/06/12 01:48:16;;;;;;;20.23;3.88;;;;;;;16.29;66.49;101377.72;5050687;28;20025;-91
2022/06/12 01:50:43;;;;;;;28.23;5.20;;;;;;;16.17;66.24;101375.09;5052095;28;20109;-91
2022/06/12 01:53:27;;;;;;;18.77;4.22;;;;;;;16.18;66.49;101373.28;5051905;28;20083;-90
2022/06/12 01:56:03;;;;;;;14.38;3.70;;;;;;;16.22;66.49;101377.38;5050658;28;20025;-90
2022/06/12 01:58:45;;;;;;;19.67;3.72;;;;;;;15.96;67.32;101372.25;5052133;28;20036;-91
2022/06/12 02:01:23;;;;;;;22.33;5.03;;;;;;;16.16;66.83;101373.38;5053966;28;20055;-91
2022/06/12 02:04:01;;;;;;;19.38;3.58;;;;;;;16.16;66.40;101370.72;5051973;28;20052;-91
2022/06/12 02:06:43;;;;;;;20.02;4.63;;;;;;;16.01;67.06;101374.53;5051894;28;20087;-90
2022/06/12 02:09:23;;;;;;;21.15;4.25;;;;;;;15.89;67.20;101380.75;5051868;28;20025;-90
2022/06/12 02:15:19;;;;;;;18.15;3.50;;;;;;;15.84;67.85;101368.72;5052119;28;20131;-90
2022/06/12 02:17:51;;;;;;;15.98;3.60;;;;;;;15.87;67.60;101367.63;5070594;28;20520;-89
2022/06/12 02:20:21;;;;;;;15.18;4.30;;;;;;;15.86;67.59;101377.38;5071775;28;20154;-90
2022/06/12 02:22:49;;;;;;;19.38;4.10;;;;;;;15.76;68.21;101368.44;5071603;28;20146;-90
2022/06/12 02:25:26;;;;;;;23.20;5.07;;;;;;;15.91;67.90;101368.25;5071930;28;20060;-91
2022/06/12 02:27:58;;;;;;;18.25;4.40;;;;;;;15.90;67.86;101372.72;5071744;28;20029;-90
2022/06/12 02:30:27;;;;;;;23.35;4.15;;;;;;;15.95;67.94;101370.53;5069976;28;20051;-91
2022/06/12 02:32:58;;;;;;;18.33;3.88;;;;;;;16.08;67.93;101369.63;5071617;28;20387;-91
2022/06/12 02:35:40;;;;;;;25.25;5.15;;;;;;;16.09;67.71;101366.00;5071761;28;20115;-91
2022/06/12 02:38:13;;;;;;;19.17;4.22;;;;;;;16.12;67.74;101358.69;5071582;28;20021;-90
2022/06/12 02:40:43;;;;;;;18.95;4.10;;;;;;;16.31;67.08;101354.59;5071461;28;20041;-90
2022/06/12 02:43:13;;;;;;;18.75;4.43;;;;;;;16.53;66.30;101354.66;5069919;28;20482;-90
2022/06/12 02:46:02;;;;;;;15.02;4.00;;;;;;;16.55;66.35;101368.63;5071771;28;20032;-90
2022/06/12 02:48:29;;;;;;;18.02;3.88;;;;;;;16.49;66.37;101374.41;5071304;28;20064;-91
2022/06/12 02:51:21;;;;;;;17.88;4.03;;;;;;;16.50;66.50;101365.47;5071540;28;20036;-91
2022/06/12 02:54:27;;;;;;;26.70;5.68;;;;;;;17.01;65.28;101370.31;5069864;28;20036;-90
2022/06/12 02:57:20;;;;;;;21.23;4.95;;;;;;;17.38;63.92;101358.56;5054578;28;20055;-89
2022/06/12 03:00:06;;;;;;;14.35;2.95;;;;;;;17.31;64.04;101366.16;5056700;28;20028;-90
2022/06/12 03:02:41;;;;;;;19.05;4.10;;;;;;;17.27;64.21;101366.53;5069466;28;20116;-90
2022/06/12 03:05:30;;;;;;;17.90;3.90;;;;;;;17.35;64.04;101372.91;5074121;28;20025;-91
2022/06/12 03:08:00;;;;;;;22.38;4.93;;;;;;;17.40;63.69;101365.41;5074939;28;20059;-91
2022/06/12 03:10:31;;;;;;;20.17;3.80;;;;;;;17.47;63.46;101370.22;5075360;28;20965;-91
2022/06/12 03:12:56;;;;;;;13.55;3.47;;;;;;;17.36;63.44;101368.47;5075113;28;20116;-90
2022/06/12 03:15:43;;;;;;;17.88;3.90;;;;;;;17.12;64.07;101361.50;5073570;28;20067;-90
2022/06/12 03:18:15;;;;;;;15.90;4.15;;;;;;;17.19;63.51;101367.16;5074931;28;20111;-90
2022/06/12 03:20:52;;;;;;;14.93;3.75;;;;;;;16.92;64.41;101360.44;5074829;28;20487;-90
2022/06/12 03:23:31;;;;;;;12.80;3.40;;;;;;;16.77;64.86;101361.63;5074854;28;20429;-90
2022/06/12 03:25:57;;;;;;;20.98;4.18;;;;;;;16.60;65.26;101355.84;5073549;28;20064;-90
2022/06/12 03:28:48;;;;;;;15.13;3.45;;;;;;;16.71;65.13;101357.66;5074644;28;20078;-90
2022/06/12 03:31:30;;;;;;;23.88;3.95;;;;;;;16.61;65.24;101354.88;5055958;28;20041;-90
2022/06/12 03:34:04;;;;;;;19.77;4.45;;;;;;;16.63;65.26;101363.56;5053584;28;20037;-90
2022/06/12 03:36:44;;;;;;;15.75;3.70;;;;;;;16.71;64.85;101359.47;5054992;28;20029;-91
2022/06/12 03:39:32;;;;;;;13.98;3.20;;;;;;;16.76;65.05;101359.94;5054359;28;20021;-90
2022/06/12 03:42:30;;;;;;;17.17;4.38;;;;;;;16.61;65.24;101357.53;5054198;28;20172;-91
2022/06/12 03:45:01;;;;;;;20.00;4.57;;;;;;;16.59;65.58;101354.16;5051098;28;20041;-91
2022/06/12 03:47:40;;;;;;;19.73;4.38;;;;;;;16.57;65.36;101350.78;5074457;28;20029;-91
2022/06/12 03:50:17;;;;;;;18.10;4.95;;;;;;;16.61;65.52;101348.75;5074669;28;20039;-91
2022/06/12 03:52:48;;;;;;;13.20;3.97;;;;;;;16.77;65.16;101356.34;5074239;28;20047;-90
2022/06/12 03:55:21;;;;;;;14.77;4.30;;;;;;;16.60;65.32;101355.00;5074427;28;20073;-91
2022/06/12 03:57:56;;;;;;;12.63;3.05;;;;;;;16.70;64.92;101358.59;5074220;28;20382;-90
2022/06/12 04:00:27;;;;;;;17.10;4.55;;;;;;;16.68;64.77;101360.53;5060149;28;20029;-90
2022/06/12 04:02:57;;;;;;;15.10;4.60;;;;;;;16.59;64.80;101356.81;5053929;28;20021;-90
2022/06/12 04:05:28;;;;;;;17.77;3.75;;;;;;;16.53;64.76;101365.25;5054009;28;20112;-90
2022/06/12 04:07:57;;;;;;;12.68;3.10;;;;;;;16.39;65.50;101365.44;5052742;28;20116;-90
2022/06/12 04:10:28;;;;;;;15.25;4.10;;;;;;;16.41;65.42;101368.81;5053935;28;20097;-90
2022/06/12 04:12:54;;;;;;;11.52;3.38;;;;;;;16.39;65.14;101373.41;5054013;28;20025;-90
2022/06/12 04:15:47;;;;;;;11.63;3.22;;;;;;;16.21;65.08;101371.22;5064322;28;20070;-91
2022/06/12 04:18:12;;;;;;;11.45;3.05;;;;;;;16.16;65.82;101372.53;5052588;28;20071;-91
2022/06/12 04:20:50;;;;;;;15.23;3.63;;;;;;;16.12;65.61;101371.94;5074031;28;20052;-90
2022/06/12 04:23:31;;;;;;;8.82;3.42;;;;;;;16.15;65.76;101370.84;5073789;28;20045;-90
2022/06/12 04:26:01;;;;;;;11.68;3.10;;;;;;;16.11;65.63;101364.91;5073633;28;20031;-90
2022/06/12 04:28:41;;;;;;;13.02;2.78;;;;;;;16.09;65.71;101377.44;5072416;28;20032;-90
2022/06/12 04:31:18;;;;;;;12.23;2.97;;;;;;;16.13;65.71;101364.81;5070939;28;20028;-90
2022/06/12 04:33:46;;;;;;;12.82;3.85;;;;;;;16.12;66.00;101366.63;5058711;28;20029;-89
2022/06/12 04:36:12;;;;;;;9.15;3.35;;;;;;;16.44;65.18;101365.94;5053249;28;20017;-92
2022/06/12 04:38:39;;;;;;;17.08;3.28;;;;;;;16.59;65.11;101370.06;5053574;28;20063;-91
2022/06/12 04:41:05;;;;;;;15.35;3.47;;;;;;;16.55;64.48;101358.03;5053424;28;20025;-90
2022/06/12 04:43:31;;;;;;;12.35;3.58;;;;;;;16.42;65.04;101358.13;5052994;28;20033;-90
2022/06/12 04:45:57;;;;;;;11.57;3.45;;;;;;;16.35;64.87;101361.34;5053230;28;20100;-90
2022/06/12 04:48:33;;;;;;;15.07;3.20;;;;;;;16.35;65.63;101361.34;5060651;28;20127;-90
2022/06/12 04:50:58;;;;;;;13.68;3.33;;;;;;;16.45;65.30;101367.66;5071644;28;20032;-90
2022/06/12 04:53:24;;;;;;;14.10;3.17;;;;;;;16.63;65.12;101357.44;5073117;28;20432;-90
2022/06/12 04:55:49;;;;;;;14.82;3.60;;;;;;;16.65;65.01;101358.16;5072979;28;20024;-91
2022/06/12 04:58:14;;;;;;;17.42;3.35;;;;;;;16.85;64.36;101354.78;5073011;28;20420;-90
2022/06/12 05:00:40;;;;;;;12.32;3.13;;;;;;;17.20;64.07;101374.13;5072117;28;20050;-90
2022/06/12 05:03:05;;;;;;;17.27;3.83;;;;;;;17.28;62.78;101379.69;5071155;28;20048;-90
2022/06/12 05:05:31;;;;;;;;;;;;;;;17.30;62.94;101374.25;5073092;28;20266;-90
2022/06/12 05:07:57;;;;;;;20.05;4.45;;;;;;;17.18;62.55;101370.75;5073281;28;19913;-90
2022/06/12 05:10:22;;;;;;;19.95;4.30;;;;;;;17.32;62.51;101370.53;5071518;28;20489;-90
2022/06/12 05:12:48;;;;;;;13.85;3.72;;;;;;;17.15;63.03;101369.22;5072725;28;20035;-90
2022/06/12 05:15:14;;;;;;;12.98;3.25;;;;;;;17.18;63.17;101365.47;5072864;28;20074;-91
2022/06/12 05:17:40;;;;;;;;;;;;;;;17.09;63.05;101361.75;5072949;28;19912;-91
2022/06/12 05:20:06;;;;;;;;;;;;;;;17.27;63.13;101367.38;5071651;28;19912;-90
2022/06/12 05:22:31;;;;;;;;;;;;;;;17.28;62.73;101376.19;5073072;28;19920;-90
2022/06/12 05:24:57;;;;;;;;;;;;;;;17.44;62.81;101374.81;5073274;28;19912;-91
2022/06/12 05:27:23;;;;;;;11.60;3.20;;;;;;;17.73;62.58;101373.38;5073526;28;19916;-90
2022/06/12 05:29:49;;;;;;;;;;;;;;;17.85;62.29;101377.69;5072994;28;20749;-89
2022/06/12 05:32:18;;;;;;;21.50;4.75;;;;;;;17.91;61.20;101371.91;5072602;28;19922;-90
2022/06/12 05:34:44;;;;;;;17.48;3.80;;;;;;;17.98;61.56;101370.41;5056533;28;20036;-91
2022/06/12 05:37:10;;;;;;;19.80;3.33;;;;;;;18.20;60.49;101371.25;5051227;28;20024;-90
2022/06/12 05:39:35;;;;;;;15.13;3.95;;;;;;;18.21;60.78;101365.81;5053042;28;20025;-89
2022/06/12 05:42:01;;;;;;;11.50;3.78;;;;;;;18.49;60.47;101382.06;5052053;28;20398;-89
2022/06/12 05:44:26;;;;;;;16.15;3.65;;;;;;;18.61;60.13;101391.63;5054428;28;20453;-90
2022/06/12 05:46:51;;;;;;;22.98;4.45;;;;;;;18.91;59.27;101389.97;5051966;28;20028;-89
2022/06/12 05:49:17;;;;;;;11.20;3.13;;;;;;;18.99;59.18;101392.78;5066605;28;20383;-90
2022/06/12 05:51:42;;;;;;;14.45;3.53;;;;;;;18.87;59.32;101393.88;5073504;28;20074;-90
2022/06/12 05:54:08;;;;;;;19.27;3.72;;;;;;;18.87;59.19;101391.22;5072625;28;20029;-89
2022/06/12 05:56:34;;;;;;;18.42;3.90;;;;;;;18.97;58.95;101388.59;5073045;28;20377;-90
2022/06/12 05:59:00;;;;;;;19.08;3.40;;;;;;;19.20;58.79;101398.03;5073779;28;20021;-90
2022/06/12 06:01:26;;;;;;;18.67;4.15;;;;;;;19.68;57.81;101392.94;5073067;28;20028;-90
2022/06/12 06:03:53;;;;;;;24.23;4.95;;;;;;;20.18;56.32;101395.44;5061749;28;20021;-90
2022/06/12 06:06:25;;;;;;;20.08;5.00;;;;;;;20.71;55.29;101402.09;5053424;28;20267;-90
2022/06/12 06:08:52;;;;;;;17.75;4.88;;;;;;;20.87;54.21;101394.28;5053476;28;20064;-90
2022/06/12 06:11:17;;;;;;;14.18;4.35;;;;;;;21.11;54.09;101395.56;5054223;28;20032;-90
2022/06/12 06:13:43;;;;;;;12.45;3.80;;;;;;;21.30;52.93;101391.94;5054435;28;20028;-90
2022/06/12 06:16:08;;;;;;;22.95;6.22;;;;;;;21.55;51.89;101395.75;5053590;28;20032;-91
2022/06/12 06:18:36;;;;;;;26.15;4.90;;;;;;;21.94;50.88;101395.44;5054305;28;20031;-90
2022/06/12 06:21:02;;;;;;;20.70;4.43;;;;;;;21.88;51.55;101382.66;5052665;28;20032;-91
2022/06/12 06:23:27;;;;;;;21.83;4.35;;;;;;;21.79;52.04;101385.28;5052167;28;20116;-90
2022/06/12 06:25:53;;;;;;;16.45;3.92;;;;;;;22.42;51.27;101383.44;5056288;28;20100;-90
2022/06/12 06:28:18;;;;;;;23.38;4.35;;;;;;;22.92;50.27;101382.66;5072442;28;20089;-91
2022/06/12 06:30:44;;;;;;;17.50;4.07;;;;;;;24.09;47.45;101380.91;5068097;28;20025;-91
2022/06/12 06:33:10;;;;;;;17.17;4.15;;;;;;;26.04;43.18;101373.91;5068068;28;20103;-93
2022/06/12 06:35:37;;;;;;;24.10;5.03;;;;;;;23.61;47.71;101379.03;5073983;28;20474;-88
2022/06/12 06:38:04;;;;;;;23.77;5.15;;;;;;;25.84;42.39;101375.44;5071243;28;20517;-90
2022/06/12 06:40:31;;;;;;;15.88;4.70;;;;;;;23.90;46.75;101395.50;5071962;28;20060;-92
2022/06/12 06:42:57;;;;;;;23.13;5.05;;;;;;;22.08;50.98;101396.72;5073811;28;20027;-90
2022/06/12 06:48:08;;;;;;;26.33;5.32;;;;;;;26.91;41.20;101359.84;5073698;28;20066;-91
2022/06/12 06:50:34;;;;;;;16.52;5.40;;;;;;;28.91;38.00;101354.41;5073333;28;20032;-90
2022/06/12 06:53:00;;;;;;;18.08;5.00;;;;;;;32.08;32.65;101337.72;5073150;28;20485;-91
2022/06/12 06:55:28;;;;;;;12.15;3.88;;;;;;;33.32;30.07;101332.00;5073443;28;20044;-90
2022/06/12 06:57:54;;;;;;;14.35;4.38;;;;;;;34.03;28.68;101323.91;5074221;28;20025;-90
2022/06/12 07:00:23;;;;;;;14.82;3.67;;;;;;;35.82;26.52;101376.47;5072731;28;20444;-89
2022/06/12 07:02:49;;;;;;;13.32;3.33;;;;;;;35.71;26.85;101385.63;5073992;28;20052;-91
2022/06/12 07:05:15;;;;;;;12.45;3.03;;;;;;;37.37;24.78;101379.28;5074221;28;20024;-88
2022/06/12 07:07:41;;;;;;;11.95;3.15;;;;;;;38.79;22.67;101331.06;5074029;28;20024;-90
2022/06/12 07:10:11;;;;;;;11.05;3.30;;;;;;;37.20;23.93;101281.63;5072984;28;20441;-89
2022/06/12 07:12:36;;;;;;;9.13;3.08;;;;;;;38.02;23.95;101279.44;5074029;28;20505;-90
2022/06/12 07:15:03;;;;;;;12.13;2.90;;;;;;;37.35;23.70;101278.19;5072337;28;20032;-90
2022/06/12 07:17:28;;;;;;;19.08;3.63;;;;;;;35.93;25.11;101296.31;5073779;28;20056;-90
2022/06/12 07:19:53;;;;;;;14.75;3.47;;;;;;;34.21;27.54;101364.66;5073658;28;20051;-90
2022/06/12 07:22:19;;;;;;;10.27;2.95;;;;;;;34.14;27.76;101383.00;5074073;28;20028;-92
2022/06/12 07:24:44;;;;;;;13.88;3.78;;;;;;;32.76;29.33;101389.25;5068430;28;20029;-90
2022/06/12 07:27:10;;;;;;;10.02;3.33;;;;;;;36.79;24.29;101362.50;5065618;28;20056;-91
2022/06/12 07:29:35;;;;;;;13.70;3.92;;;;;;;33.40;27.63;101380.66;5068112;28;20064;-90
2022/06/12 07:32:01;;;;;;;8.75;3.17;;;;;;;36.62;24.32;101243.03;5050696;28;20036;-91
2022/06/12 07:34:26;;;;;;;12.38;3.88;;;;;;;38.42;22.38;101352.03;5069173;28;20031;-91
2022/06/12 07:36:53;;;;;;;13.23;3.72;;;;;;;38.30;22.34;101367.91;5068410;28;20490;-91
2022/06/12 07:39:22;;;;;;;10.93;3.03;;;;;;;38.02;23.03;101303.31;5069153;28;20114;-91
2022/06/12 07:41:49;;;;;;;11.00;3.50;;;;;;;36.85;24.18;101389.69;5066698;28;20078;-91
2022/06/12 07:44:20;;;;;;;11.20;3.80;;;;;;;33.58;27.46;101307.06;5066026;28;20024;-90
2022/06/12 07:46:46;;;;;;;8.87;3.63;;;;;;;34.65;26.39;101255.94;5070050;28;20032;-91
2022/06/12 07:49:12;;;;;;;9.98;3.47;;;;;;;34.20;26.56;101403.06;5068764;28;20086;-90
2022/06/12 07:51:37;;;;;;;10.60;3.22;;;;;;;37.21;23.76;101389.25;5067307;28;20021;-91
2022/06/12 07:54:03;;;;;;;11.20;3.53;;;;;;;38.63;22.37;101280.81;5077267;28;20547;-91
2022/06/12 07:56:30;;;;;;;15.48;4.05;;;;;;;38.75;22.14;101327.22;5067172;28;20036;-92
2022/06/12 07:58:55;;;;;;;8.02;3.10;;;;;;;40.78;20.35;101398.75;5073818;28;20034;-91
2022/06/12 08:01:23;;;;;;;9.95;3.03;;;;;;;34.14;25.85;101399.34;5053933;28;20029;-91
2022/06/12 08:03:49;;;;;;;7.65;2.70;;;;;;;34.09;26.46;101412.88;5065886;28;20016;-91
2022/06/12 08:06:14;;;;;;;12.50;3.05;;;;;;;34.49;25.30;101395.81;5066796;28;20448;-92
2022/06/12 08:08:40;;;;;;;8.07;2.88;;;;;;;36.04;23.54;101342.91;5068262;28;20021;-91
2022/06/12 08:11:06;;;;;;;9.60;3.80;;;;;;;37.56;22.53;101349.56;5069866;28;20382;-92
2022/06/12 08:13:33;;;;;;;8.35;3.10;;;;;;;37.72;22.86;101397.09;5067736;28;20035;-91
2022/06/12 08:15:59;;;;;;;13.07;2.80;;;;;;;38.72;21.60;101393.59;5063361;28;20021;-92
2022/06/12 08:18:25;;;;;;;15.48;3.35;;;;;;;38.37;22.29;101395.91;5070963;28;20038;-91
2022/06/12 08:20:54;;;;;;;11.07;3.03;;;;;;;40.01;20.58;101384.38;5070132;28;20051;-91
2022/06/12 08:23:28;;;;;;;9.18;2.90;;;;;;;38.86;20.88;101383.75;5066585;28;20036;-91
2022/06/12 08:26:27;;;;;;;7.55;2.70;;;;;;;37.14;22.41;101402.31;5064834;28;20373;-91
2022/06/12 08:29:00;;;;;;;9.05;2.35;;;;;;;36.45;23.34;101412.69;5066988;28;20560;-90
2022/06/12 08:31:41;;;;;;;9.98;3.05;;;;;;;36.68;23.22;101408.09;5071167;28;20173;-92
2022/06/12 08:34:23;;;;;;;11.18;3.13;;;;;;;37.67;21.88;101411.59;5072643;28;20035;-91
2022/06/12 08:36:55;;;;;;;8.43;2.30;;;;;;;39.00;21.11;101412.38;5062321;28;20497;-90
2022/06/12 08:39:20;;;;;;;9.25;2.30;;;;;;;36.28;24.01;101407.28;5069392;28;20068;-92
2022/06/12 08:42:29;;;;;;;9.98;3.22;;;;;;;35.99;23.54;101408.44;5071254;28;20409;-92
2022/06/12 08:45:22;;;;;;;7.55;2.25;;;;;;;35.45;24.10;101407.00;5068416;28;20064;-92
2022/06/12 08:47:55;;;;;;;8.18;2.50;;;;;;;37.49;21.36;101407.31;5065624;28;20075;-91
2022/06/12 08:50:35;;;;;;;8.57;2.80;;;;;;;32.19;26.69;101411.16;5070934;28;20397;-93
2022/06/12 08:53:15;;;;;;;7.80;2.85;;;;;;;36.84;22.85;101409.09;5070562;28;20070;-93
2022/06/12 08:55:47;;;;;;;10.60;2.67;;;;;;;35.51;23.78;101416.13;5067549;28;20483;-93
2022/06/12 08:58:29;;;;;;;7.50;2.65;;;;;;;35.28;23.94;101406.16;5067639;28;20434;-92
2022/06/12 09:00:54;;;;;;;;;;;;;;;36.83;22.52;101423.84;5068453;28;20519;-95
2022/06/12 09:03:23;;;;;;;6.57;2.00;;;;;;;37.25;21.24;101415.84;5076748;28;20006;-96
2022/06/12 09:06:30;;;;;;;6.07;1.90;;;;;;;37.35;21.76;101411.56;5073475;28;20016;-93
2022/06/12 09:09:01;;;;;;;11.35;2.40;;;;;;;32.62;25.86;101412.19;5067982;28;20044;-93
2022/06/12 09:11:47;;;;;;;9.25;2.45;;;;;;;31.32;27.32;101415.53;5069255;28;20096;-93
2022/06/12 09:14:31;;;;;;;8.15;1.98;;;;;;;28.11;32.02;101427.72;5072691;28;20112;-94
2022/06/12 09:17:39;;;;;;;7.60;1.85;;;;;;;29.37;31.19;101424.09;5071060;28;20033;-93
2022/06/12 09:20:07;;;;;;;5.07;1.75;;;;;;;29.54;30.79;101417.22;5073444;28;20033;-93
2022/06/12 09:22:52;;;;;;;5.55;2.05;;;;;;;30.19;28.60;101428.34;5072787;28;20051;-93
2022/06/12 09:25:26;;;;;;;9.13;2.35;;;;;;;30.32;29.65;101427.53;5060947;28;20275;-93
2022/06/12 09:28:03;;;;;;;9.38;2.30;;;;;;;32.14;27.49;101419.13;5073889;28;20053;-94
2022/06/12 09:30:41;;;;;;;7.22;2.20;;;;;;;29.13;30.23;101417.31;5058261;28;20064;-93
2022/06/12 09:33:15;;;;;;;6.97;2.25;;;;;;;30.82;29.21;101406.13;5052536;28;20100;-94
2022/06/12 09:35:53;;;;;;;8.43;2.00;;;;;;;32.46;28.30;101412.78;5052967;28;20082;-94
2022/06/12 09:38:50;;;;;;;11.82;3.22;;;;;;;32.83;26.22;101404.66;5053192;28;20068;-93
2022/06/12 09:41:21;;;;;;;14.02;2.75;;;;;;;31.53;28.17;101417.91;5053184;28;20039;-93
2022/06/12 09:44:07;;;;;;;7.93;1.70;;;;;;;30.10;27.99;101417.94;5054332;28;20111;-92
2022/06/12 09:46:40;;;;;;;8.10;2.00;;;;;;;30.51;28.00;101420.41;5072663;28;20046;-92
2022/06/12 09:49:24;;;;;;;8.77;2.28;;;;;;;29.59;29.01;101425.56;5071306;28;20389;-92
2022/06/12 09:51:55;;;;;;;8.27;2.35;;;;;;;28.48;30.56;101426.53;5071313;28;20079;-92
2022/06/12 09:54:42;;;;;;;8.05;2.20;;;;;;;28.45;31.64;101426.06;5074175;28;20032;-93
2022/06/12 09:57:38;;;;;;;8.38;1.80;;;;;;;26.68;34.20;101432.72;5073330;28;20110;-93
2022/06/12 10:00:16;;;;;;;7.85;2.90;;;;;;;25.88;34.81;101425.16;5056441;28;20043;-94
2022/06/12 10:03:05;;;;;;;10.55;1.80;;;;;;;26.44;33.23;101433.78;5052833;28;20028;-94
2022/06/12 10:05:48;;;;;;;6.68;1.85;;;;;;;28.45;31.32;101426.91;5053448;28;20029;-93
2022/06/12 10:08:25;;;;;;;8.60;1.95;;;;;;;28.52;32.79;101424.28;5054027;28;20036;-91
2022/06/12 10:10:59;;;;;;;8.75;2.13;;;;;;;29.62;30.32;101421.63;5054705;28;20533;-92
2022/06/12 10:13:38;;;;;;;8.30;1.90;;;;;;;30.70;28.16;101417.84;5064451;28;20029;-92
2022/06/12 10:16:15;;;;;;;8.75;2.00;;;;;;;29.04;31.12;101428.28;5071829;28;20112;-92
2022/06/12 10:18:55;;;;;;;6.40;1.92;;;;;;;27.50;32.39;101430.84;5071275;28;20028;-93
2022/06/12 10:21:23;;;;;;;9.82;2.25;;;;;;;27.09;33.39;101425.97;5070483;28;20028;-93
2022/06/12 10:23:49;;;;;;;7.78;2.05;;;;;;;27.87;32.79;101431.63;5070651;28;20029;-92
2022/06/12 10:26:22;;;;;;;12.55;3.00;;;;;;;29.20;30.31;101423.59;5072238;28;20104;-92
2022/06/12 10:29:24;;;;;;;7.68;1.92;;;;;;;30.92;28.39;101421.97;5069935;28;20474;-93
2022/06/12 10:32:01;;;;;;;8.20;2.00;;;;;;;30.72;28.44;101426.59;5070457;28;20485;-91
2022/06/12 10:34:30;;;;;;;10.13;3.97;;;;;;;28.72;30.45;101434.41;5068588;28;20036;-91
2022/06/12 10:37:08;;;;;;;7.97;2.25;;;;;;;28.95;31.02;101436.78;5056501;28;20033;-91
2022/06/12 10:39:35;;;;;;;10.02;2.28;;;;;;;31.18;27.70;101429.19;5071016;28;20031;-91
2022/06/12 10:42:07;;;;;;;10.93;2.88;;;;;;;29.94;28.97;101422.75;5057746;28;20040;-91
2022/06/12 10:44:39;;;;;;;17.30;2.50;;;;;;;28.19;31.22;101429.44;5051879;28;20474;-91
2022/06/12 10:47:15;;;;;;;10.43;2.42;;;;;;;26.78;32.63;101434.28;5070970;28;20032;-92
2022/06/12 10:49:40;;;;;;;10.30;2.47;;;;;;;28.77;30.89;101424.66;5065974;28;20023;-94
2022/06/12 10:52:13;;;;;;;12.20;2.40;;;;;;;27.93;33.04;101422.78;5071503;28;20390;-92
2022/06/12 10:54:38;;;;;;;12.15;3.03;;;;;;;27.34;33.36;101423.81;5071315;28;20091;-91
2022/06/12 10:57:33;;;;;;;15.95;2.63;;;;;;;28.19;32.50;101426.72;5073482;28;20039;-90
2022/06/12 11:00:04;;;;;;;10.75;2.83;;;;;;;30.12;30.29;101419.41;5073128;28;20055;-92
2022/06/12 11:03:08;;;;;;;12.98;2.55;;;;;;;29.12;31.38;101421.91;5074722;28;20086;-94
2022/06/12 11:06:01;;;;;;;12.65;2.85;;;;;;;30.05;29.92;101421.25;5061625;28;20045;-94
2022/06/12 11:08:59;;;;;;;14.63;2.97;;;;;;;30.50;28.51;101420.63;5075344;28;20029;-95
2022/06/12 11:11:47;;;;;;;9.20;2.53;;;;;;;27.80;32.05;101422.63;5066289;28;20033;-93
2022/06/12 11:14:35;;;;;;;8.63;2.75;;;;;;;29.87;30.30;101411.06;5065364;28;20064;-93
2022/06/12 11:17:25;;;;;;;11.38;2.83;;;;;;;31.45;27.96;101420.06;5073864;28;20502;-93
2022/06/12 11:20:00;;;;;;;10.55;2.40;;;;;;;29.74;29.13;101413.75;5073416;28;20066;-93
2022/06/12 11:22:32;;;;;;;11.13;2.53;;;;;;;29.17;29.18;101416.75;5075940;28;20029;-92
2022/06/12 11:25:38;;;;;;;16.75;2.60;;;;;;;28.43;31.13;101409.25;5075552;28;20028;-93
2022/06/12 11:28:04;;;;;;;9.52;2.50;;;;;;;29.27;31.08;101413.66;5013322;28;20105;-94
2022/06/12 11:30:39;;;;;;;10.98;3.17;;;;;;;29.55;29.79;101413.50;4997197;28;20551;-93
2022/06/12 11:33:12;;;;;;;10.32;2.60;;;;;;;29.13;30.64;101412.78;5039360;28;20395;-93
2022/06/12 11:35:49;;;;;;;7.72;2.60;;;;;;;29.14;31.76;101414.44;5055850;28;20364;-93
2022/06/12 11:38:24;;;;;;;8.48;2.80;;;;;;;29.49;29.14;101408.09;5055352;28;20021;-93
2022/06/12 11:41:11;;;;;;;9.32;2.85;;;;;;;30.48;28.63;101411.88;5055491;28;20028;-93
2022/06/12 11:43:41;;;;;;;11.02;2.67;;;;;;;30.63;29.10;101398.91;5055363;28;20394;-94
2022/06/12 11:46:19;;;;;;;8.53;2.30;;;;;;;30.13;29.68;101406.69;5055401;28;20021;-93
2022/06/12 11:49:29;;;;;;;13.25;2.78;;;;;;;31.58;26.79;101399.09;5056423;28;20117;-95
2022/06/12 11:52:31;;;;;;;9.13;2.65;;;;;;;30.54;29.81;101398.31;5040336;28;20190;-94
2022/06/12 11:54:59;;;;;;;;;;;;;;;29.60;29.43;101397.50;5055869;28;20039;-93
2022/06/12 11:57:42;;;;;;;10.93;2.72;;;;;;;28.67;31.14;101405.25;5055427;28;19913;-94
2022/06/12 12:00:51;;;;;;;10.07;2.33;;;;;;;29.00;30.57;101412.69;5055490;28;20029;-94
2022/06/12 12:03:43;;;;;;;9.52;2.72;;;;;;;30.20;28.77;101402.91;5054719;28;20447;-94